sensor_id;sensor_type;location;lat;lon;timestamp;pressure;altitude;pressure_sealevel;temperature;humidity
3524;BME280;1776;53.330;11.498;2024-01-15T00:02:12;20065.47;;;-147.39;98.88
3524;BME280;1776;53.330;11.498;2024-01-15T00:04:38;19588.16;;;-147.39;98.77
3524;BME280;1776;53.330;11.498;2024-01-15T00:07:04;20061.41;;;-147.39;99.08
3524;BME280;1776;53.330;11.498;2024-01-15T00:09:29;20093.88;;;-147.39;99.00
3524;BME280;1776;53.330;11.498;2024-01-15T00:11:55;20099.97;;;-147.39;98.65
3524;BME280;1776;53.330;11.498;2024-01-15T00:14:20;20207.63;;;-147.39;98.44
3524;BME280;1776;53.330;11.498;2024-01-15T00:16:46;20110.13;;;-147.39;98.25
3524;BME280;1776;53.330;11.498;2024-01-15T00:19:11;20114.19;;;-147.39;98.28
3524;BME280;1776;53.330;11.498;2024-01-15T00:21:36;20189.34;;;-147.39;97.97
3524;BME280;1776;53.330;11.498;2024-01-15T00:24:02;20303.09;;;-147.39;97.63
3524;BME280;1776;53.330;11.498;2024-01-15T00:26:27;20189.34;;;-147.39;97.49
3524;BME280;1776;53.330;11.498;2024-01-15T00:28:52;20240.13;;;-147.39;97.38
3524;BME280;1776;53.330;11.498;2024-01-15T00:31:17;20217.78;;;-147.39;96.92
3524;BME280;1776;53.330;11.498;2024-01-15T00:33:43;20197.47;;;-147.39;97.38
3524;BME280;1776;53.330;11.498;2024-01-15T00:36:08;20195.44;;;-147.39;96.94
3524;BME280;1776;53.330;11.498;2024-01-15T00:38:34;20307.16;;;-147.39;97.08
3524;BME280;1776;53.330;11.498;2024-01-15T00:40:59;20282.78;;;-147.39;97.03
3524;BME280;1776;53.330;11.498;2024-01-15T00:43:24;20292.94;;;-147.39;97.11
3524;BME280;1776;53.330;11.498;2024-01-15T00:45:49;20297.00;;;-147.39;96.90
3524;BME280;1776;53.330;11.498;2024-01-15T00:48:15;20252.31;;;-147.39;96.89
3524;BME280;1776;53.330;11.498;2024-01-15T00:50:40;20262.47;;;-147.39;97.04
3524;BME280;1776;53.330;11.498;2024-01-15T00:53:05;20262.47;;;-147.39;97.11
3524;BME280;1776;53.330;11.498;2024-01-15T00:55:30;20266.53;;;-147.39;96.92
3524;BME280;1776;53.330;11.498;2024-01-15T00:57:56;20292.94;;;-147.39;96.85
3524;BME280;1776;53.330;11.498;2024-01-15T01:00:21;20286.84;;;-147.39;96.73
3524;BME280;1776;53.330;11.498;2024-01-15T01:02:46;20276.69;;;-147.39;96.84
3524;BME280;1776;53.330;11.498;2024-01-15T01:05:12;20262.47;;;-147.39;97.14
3524;BME280;1776;53.330;11.498;2024-01-15T01:07:37;20290.91;;;-147.39;96.82
3524;BME280;1776;53.330;11.498;2024-01-15T01:10:03;20301.06;;;-147.39;96.64
3524;BME280;1776;53.330;11.498;2024-01-15T01:12:28;20313.25;;;-147.39;96.69
3524;BME280;1776;53.330;11.498;2024-01-15T01:14:55;20148.72;;;-147.39;96.79
3524;BME280;1776;53.330;11.498;2024-01-15T01:17:20;20297.00;;;-147.39;96.61
3524;BME280;1776;53.330;11.498;2024-01-15T01:19:45;20398.59;;;-147.39;96.34
3524;BME280;1776;53.330;11.498;2024-01-15T01:22:10;20355.91;;;-147.39;96.37
3524;BME280;1776;53.330;11.498;2024-01-15T01:24:35;20341.69;;;-147.39;96.47
3524;BME280;1776;53.330;11.498;2024-01-15T01:27:01;20355.91;;;-147.39;96.16
3524;BME280;1776;53.330;11.498;2024-01-15T01:29:26;20382.34;;;-147.39;95.75
3524;BME280;1776;53.330;11.498;2024-01-15T01:31:52;20313.25;;;-147.39;96.39
3524;BME280;1776;53.330;11.498;2024-01-15T01:34:17;20317.31;;;-147.39;97.23
3524;BME280;1776;53.330;11.498;2024-01-15T01:36:43;20232.00;;;-147.39;97.08
3524;BME280;1776;53.330;11.498;2024-01-15T01:39:08;20313.25;;;-147.39;97.53
3524;BME280;1776;53.330;11.498;2024-01-15T01:41:34;20219.81;;;-147.39;97.81
3524;BME280;1776;53.330;11.498;2024-01-15T01:43:59;20258.41;;;-147.39;97.70
3524;BME280;1776;53.330;11.498;2024-01-15T01:46:27;20396.56;;;-147.39;97.58
3524;BME280;1776;53.330;11.498;2024-01-15T01:48:53;20242.16;;;-147.39;97.31
3524;BME280;1776;53.330;11.498;2024-01-15T01:51:21;20278.72;;;-147.39;97.15
3524;BME280;1776;53.330;11.498;2024-01-15T01:53:48;20238.09;;;-147.39;97.38
3524;BME280;1776;53.330;11.498;2024-01-15T01:56:14;20246.22;;;-147.39;97.64
3524;BME280;1776;53.330;11.498;2024-01-15T01:58:40;20077.66;;;-147.39;97.89
3524;BME280;1776;53.330;11.498;2024-01-15T02:01:06;20173.09;;;-147.39;98.43
3524;BME280;1776;53.330;11.498;2024-01-15T02:03:31;20256.38;;;-147.39;98.54
3524;BME280;1776;53.330;11.498;2024-01-15T02:05:57;20167.00;;;-147.39;98.38
3524;BME280;1776;53.330;11.498;2024-01-15T02:08:24;20183.25;;;-147.39;98.71
3524;BME280;1776;53.330;11.498;2024-01-15T02:10:49;20171.06;;;-147.39;98.89
3524;BME280;1776;53.330;11.498;2024-01-15T02:13:15;20142.63;;;-147.39;98.61
3524;BME280;1776;53.330;11.498;2024-01-15T02:15:40;20229.97;;;-147.39;98.40
3524;BME280;1776;53.330;11.498;2024-01-15T02:18:06;20144.66;;;-147.39;98.55
3524;BME280;1776;53.330;11.498;2024-01-15T02:20:33;20195.44;;;-147.39;98.11
3524;BME280;1776;53.330;11.498;2024-01-15T02:25:36;20368.09;;;-147.39;97.19
3524;BME280;1776;53.330;11.498;2024-01-15T02:28:03;20250.28;;;-147.39;97.32
3524;BME280;1776;53.330;11.498;2024-01-15T02:30:29;20270.59;;;-147.39;97.08
3524;BME280;1776;53.330;11.498;2024-01-15T02:32:55;20244.19;;;-147.39;97.53
3524;BME280;1776;53.330;11.498;2024-01-15T02:35:20;20297.00;;;-147.39;97.37
3524;BME280;1776;53.330;11.498;2024-01-15T02:37:45;20225.91;;;-147.39;97.68
3524;BME280;1776;53.330;11.498;2024-01-15T02:40:11;20223.88;;;-147.39;98.28
3524;BME280;1776;53.330;11.498;2024-01-15T02:42:36;20146.69;;;-147.39;98.84
3524;BME280;1776;53.330;11.498;2024-01-15T02:45:01;20144.66;;;-147.39;99.34
3524;BME280;1776;53.330;11.498;2024-01-15T02:47:27;20073.59;;;-147.39;99.63
3524;BME280;1776;53.330;11.498;2024-01-15T02:49:52;20006.56;;;-147.39;100.00
3524;BME280;1776;53.330;11.498;2024-01-15T02:52:17;20051.25;;;-147.39;100.00
3524;BME280;1776;53.330;11.498;2024-01-15T02:54:43;19937.50;;;-147.39;100.00
3524;BME280;1776;53.330;11.498;2024-01-15T02:57:08;19955.78;;;-147.39;100.00
3524;BME280;1776;53.330;11.498;2024-01-15T02:59:33;19902.97;;;-147.39;100.00
3524;BME280;1776;53.330;11.498;2024-01-15T03:01:59;19933.44;;;-147.39;100.00
3524;BME280;1776;53.330;11.498;2024-01-15T03:04:24;19919.22;;;-147.39;100.00
3524;BME280;1776;53.330;11.498;2024-01-15T03:06:49;19951.72;;;-147.39;100.00
3524;BME280;1776;53.330;11.498;2024-01-15T03:09:14;19951.72;;;-147.39;100.00
3524;BME280;1776;53.330;11.498;2024-01-15T03:11:40;20010.63;;;-147.39;99.86
3524;BME280;1776;53.330;11.498;2024-01-15T03:14:06;20041.09;;;-147.39;99.97
3524;BME280;1776;53.330;11.498;2024-01-15T03:16:31;20053.28;;;-147.39;99.34
3524;BME280;1776;53.330;11.498;2024-01-15T03:18:56;20061.41;;;-147.39;99.24
3524;BME280;1776;53.330;11.498;2024-01-15T03:21:21;20055.31;;;-147.39;99.10
3524;BME280;1776;53.330;11.498;2024-01-15T03:23:48;20024.84;;;-147.39;99.37
3524;BME280;1776;53.330;11.498;2024-01-15T03:26:13;20087.78;;;-147.39;99.55
3524;BME280;1776;53.330;11.498;2024-01-15T03:28:38;19986.25;;;-147.39;99.69
3524;BME280;1776;53.330;11.498;2024-01-15T03:31:04;20024.84;;;-147.39;99.54
3524;BME280;1776;53.330;11.498;2024-01-15T03:33:29;20059.38;;;-147.39;99.56
3524;BME280;1776;53.330;11.498;2024-01-15T03:35:55;20035.00;;;-147.39;99.43
3524;BME280;1776;53.330;11.498;2024-01-15T03:38:20;20213.72;;;-147.39;99.54
3524;BME280;1776;53.330;11.498;2024-01-15T03:40:45;20028.91;;;-147.39;99.38
3524;BME280;1776;53.330;11.498;2024-01-15T03:43:12;20020.78;;;-147.39;99.55
3524;BME280;1776;53.330;11.498;2024-01-15T03:45:37;20016.72;;;-147.39;99.33
3524;BME280;1776;53.330;11.498;2024-01-15T03:48:02;20035.00;;;-147.39;99.53
3524;BME280;1776;53.330;11.498;2024-01-15T03:50:27;20077.66;;;-147.39;99.73
3524;BME280;1776;53.330;11.498;2024-01-15T03:52:53;20002.50;;;-147.39;99.84
3524;BME280;1776;53.330;11.498;2024-01-15T03:55:18;19992.34;;;-147.39;99.71
3524;BME280;1776;53.330;11.498;2024-01-15T03:57:43;20026.88;;;-147.39;100.00
3524;BME280;1776;53.330;11.498;2024-01-15T04:00:09;20020.78;;;-147.39;99.81
3524;BME280;1776;53.330;11.498;2024-01-15T04:02:34;20014.69;;;-147.39;99.94
3524;BME280;1776;53.330;11.498;2024-01-15T04:04:59;20024.84;;;-147.39;99.62
3524;BME280;1776;53.330;11.498;2024-01-15T04:07:25;19984.22;;;-147.39;99.99
3524;BME280;1776;53.330;11.498;2024-01-15T04:09:50;20010.63;;;-147.39;99.88
3524;BME280;1776;53.330;11.498;2024-01-15T04:12:15;19990.31;;;-147.39;99.92
3524;BME280;1776;53.330;11.498;2024-01-15T04:14:40;19972.03;;;-147.39;100.00
3524;BME280;1776;53.330;11.498;2024-01-15T04:17:06;19976.09;;;-147.39;100.00
3524;BME280;1776;53.330;11.498;2024-01-15T04:19:31;19970.00;;;-147.39;100.00
3524;BME280;1776;53.330;11.498;2024-01-15T04:21:56;20020.78;;;-147.39;100.00
3524;BME280;1776;53.330;11.498;2024-01-15T04:24:21;19986.25;;;-147.39;100.00
3524;BME280;1776;53.330;11.498;2024-01-15T04:26:47;20002.50;;;-147.39;100.00
3524;BME280;1776;53.330;11.498;2024-01-15T04:29:12;19998.44;;;-147.39;100.00
3524;BME280;1776;53.330;11.498;2024-01-15T04:31:37;19947.66;;;-147.39;100.00
3524;BME280;1776;53.330;11.498;2024-01-15T04:34:02;20000.47;;;-147.39;100.00
3524;BME280;1776;53.330;11.498;2024-01-15T04:36:28;19988.28;;;-147.39;99.70
3524;BME280;1776;53.330;11.498;2024-01-15T04:38:53;19982.19;;;-147.39;99.88
3524;BME280;1776;53.330;11.498;2024-01-15T04:41:18;20022.81;;;-147.39;99.89
3524;BME280;1776;53.330;11.498;2024-01-15T04:43:44;20057.34;;;-147.39;99.39
3524;BME280;1776;53.330;11.498;2024-01-15T04:46:09;20051.25;;;-147.39;98.83
3524;BME280;1776;53.330;11.498;2024-01-15T04:48:34;20051.25;;;-147.39;98.62
3524;BME280;1776;53.330;11.498;2024-01-15T04:51:00;20179.19;;;-147.39;98.36
3524;BME280;1776;53.330;11.498;2024-01-15T04:53:26;20140.59;;;-147.39;98.04
3524;BME280;1776;53.330;11.498;2024-01-15T04:55:51;20146.69;;;-147.39;98.05
3524;BME280;1776;53.330;11.498;2024-01-15T04:58:16;19783.13;;;-147.39;98.13
3524;BME280;1776;53.330;11.498;2024-01-15T05:00:41;20158.88;;;-147.39;97.93
3524;BME280;1776;53.330;11.498;2024-01-15T05:03:07;20154.81;;;-147.39;97.72
3524;BME280;1776;53.330;11.498;2024-01-15T05:05:32;20179.19;;;-147.39;97.27
3524;BME280;1776;53.330;11.498;2024-01-15T05:07:57;20270.59;;;-147.39;97.14
3524;BME280;1776;53.330;11.498;2024-01-15T05:10:22;20209.66;;;-147.39;97.48
3524;BME280;1776;53.330;11.498;2024-01-15T05:12:48;20219.81;;;-147.39;97.59
3524;BME280;1776;53.330;11.498;2024-01-15T05:15:13;20219.81;;;-147.39;97.36
3524;BME280;1776;53.330;11.498;2024-01-15T05:17:38;20240.13;;;-147.39;97.61
3524;BME280;1776;53.330;11.498;2024-01-15T05:20:04;20227.94;;;-147.39;97.42
3524;BME280;1776;53.330;11.498;2024-01-15T05:22:29;20238.09;;;-147.39;97.37
3524;BME280;1776;53.330;11.498;2024-01-15T05:24:55;20246.22;;;-147.39;96.96
3524;BME280;1776;53.330;11.498;2024-01-15T05:27:20;20274.66;;;-147.39;96.54
3524;BME280;1776;53.330;11.498;2024-01-15T05:29:45;19770.94;;;-147.39;96.83
3524;BME280;1776;53.330;11.498;2024-01-15T05:32:10;20288.88;;;-147.39;96.41
3524;BME280;1776;53.330;11.498;2024-01-15T05:34:36;20272.63;;;-147.39;96.86
3524;BME280;1776;53.330;11.498;2024-01-15T05:37:01;20274.66;;;-147.39;96.56
3524;BME280;1776;53.330;11.498;2024-01-15T05:39:26;20215.75;;;-147.39;96.51
3524;BME280;1776;53.330;11.498;2024-01-15T05:41:51;20327.47;;;-147.39;96.26
3524;BME280;1776;53.330;11.498;2024-01-15T05:44:17;20323.41;;;-147.39;96.30
3524;BME280;1776;53.330;11.498;2024-01-15T05:46:42;20280.75;;;-147.39;96.10
3524;BME280;1776;53.330;11.498;2024-01-15T05:49:08;20351.84;;;-147.39;96.41
3524;BME280;1776;53.330;11.498;2024-01-15T05:51:33;20347.78;;;-147.39;96.08
3524;BME280;1776;53.330;11.498;2024-01-15T05:53:58;20372.16;;;-147.39;95.64
3524;BME280;1776;53.330;11.498;2024-01-15T05:56:23;20374.19;;;-147.39;95.97
3524;BME280;1776;53.330;11.498;2024-01-15T05:58:49;20337.63;;;-147.39;95.73
3524;BME280;1776;53.330;11.498;2024-01-15T06:01:14;20386.41;;;-147.39;95.56
3524;BME280;1776;53.330;11.498;2024-01-15T06:03:40;20384.38;;;-147.39;95.23
3524;BME280;1776;53.330;11.498;2024-01-15T06:06:05;20429.06;;;-147.39;94.88
3524;BME280;1776;53.330;11.498;2024-01-15T06:08:30;20457.50;;;-147.39;94.61
3524;BME280;1776;53.330;11.498;2024-01-15T06:10:56;20496.09;;;-147.39;94.38
3524;BME280;1776;53.330;11.498;2024-01-15T06:13:21;20459.53;;;-147.39;94.45
3524;BME280;1776;53.330;11.498;2024-01-15T06:15:47;20418.91;;;-147.39;94.53
3524;BME280;1776;53.330;11.498;2024-01-15T06:18:12;20490.00;;;-147.39;94.62
3524;BME280;1776;53.330;11.498;2024-01-15T06:20:37;20548.91;;;-147.39;94.59
3524;BME280;1776;53.330;11.498;2024-01-15T06:23:03;20469.69;;;-147.39;95.02
3524;BME280;1776;53.330;11.498;2024-01-15T06:25:29;20453.44;;;-147.39;94.91
3524;BME280;1776;53.330;11.498;2024-01-15T06:27:54;20483.91;;;-147.39;94.68
3524;BME280;1776;53.330;11.498;2024-01-15T06:30:19;20506.25;;;-147.39;94.86
3524;BME280;1776;53.330;11.498;2024-01-15T06:32:45;20512.34;;;-147.39;94.59
3524;BME280;1776;53.330;11.498;2024-01-15T06:35:10;20615.94;;;-147.39;94.73
3524;BME280;1776;53.330;11.498;2024-01-15T06:37:36;20343.72;;;-147.39;94.89
3524;BME280;1776;53.330;11.498;2024-01-15T06:40:02;20481.88;;;-147.39;94.53
3524;BME280;1776;53.330;11.498;2024-01-15T06:42:28;20530.63;;;-147.39;94.58
3524;BME280;1776;53.330;11.498;2024-01-15T06:44:53;20508.28;;;-147.39;94.64
3524;BME280;1776;53.330;11.498;2024-01-15T06:47:18;20520.47;;;-147.39;94.02
3524;BME280;1776;53.330;11.498;2024-01-15T06:49:44;20559.06;;;-147.39;93.47
3524;BME280;1776;53.330;11.498;2024-01-15T06:52:09;20522.50;;;-147.39;93.22
3524;BME280;1776;53.330;11.498;2024-01-15T06:54:34;20573.28;;;-147.39;93.13
3524;BME280;1776;53.330;11.498;2024-01-15T06:57:00;20561.09;;;-147.39;93.28
3524;BME280;1776;53.330;11.498;2024-01-15T06:59:25;20593.59;;;-147.39;93.05
3524;BME280;1776;53.330;11.498;2024-01-15T07:01:50;20593.59;;;-147.39;93.32
3524;BME280;1776;53.330;11.498;2024-01-15T07:04:15;20599.69;;;-147.39;93.34
3524;BME280;1776;53.330;11.498;2024-01-15T07:06:41;20638.28;;;-147.39;93.25
3524;BME280;1776;53.330;11.498;2024-01-15T07:09:06;20628.13;;;-147.39;93.37
3524;BME280;1776;53.330;11.498;2024-01-15T07:11:32;20611.88;;;-147.39;93.51
3524;BME280;1776;53.330;11.498;2024-01-15T07:13:58;20400.63;;;-147.39;93.39
3524;BME280;1776;53.330;11.498;2024-01-15T07:16:23;20593.59;;;-147.39;93.39
3524;BME280;1776;53.330;11.498;2024-01-15T07:18:48;20620.00;;;-147.39;93.72
3524;BME280;1776;53.330;11.498;2024-01-15T07:21:14;20620.00;;;-147.39;93.44
3524;BME280;1776;53.330;11.498;2024-01-15T07:23:39;20581.41;;;-147.39;93.96
3524;BME280;1776;53.330;11.498;2024-01-15T07:26:04;20583.44;;;-147.39;94.18
3524;BME280;1776;53.330;11.498;2024-01-15T07:28:30;20453.44;;;-147.39;94.20
3524;BME280;1776;53.330;11.498;2024-01-15T07:30:56;20569.22;;;-147.39;94.29
3524;BME280;1776;53.330;11.498;2024-01-15T07:33:22;20538.75;;;-147.39;94.14
3524;BME280;1776;53.330;11.498;2024-01-15T07:35:47;20593.59;;;-147.39;93.73
3524;BME280;1776;53.330;11.498;2024-01-15T07:38:12;20601.72;;;-147.39;94.07
3524;BME280;1776;53.330;11.498;2024-01-15T07:40:37;20583.44;;;-147.39;93.92
3524;BME280;1776;53.330;11.498;2024-01-15T07:43:03;20571.25;;;-147.39;93.61
3524;BME280;1776;53.330;11.498;2024-01-15T07:45:28;20620.00;;;-147.39;93.64
3524;BME280;1776;53.330;11.498;2024-01-15T07:47:54;20469.69;;;-147.39;93.67
3524;BME280;1776;53.330;11.498;2024-01-15T07:50:19;20589.53;;;-147.39;93.58
3524;BME280;1776;53.330;11.498;2024-01-15T07:52:44;20701.25;;;-147.39;93.71
3524;BME280;1776;53.330;11.498;2024-01-15T07:55:10;20603.75;;;-147.39;93.75
3524;BME280;1776;53.330;11.498;2024-01-15T07:57:35;20587.50;;;-147.39;94.06
3524;BME280;1776;53.330;11.498;2024-01-15T08:00:04;20585.47;;;-147.39;93.89
3524;BME280;1776;53.330;11.498;2024-01-15T08:02:30;20585.47;;;-147.39;93.71
3524;BME280;1776;53.330;11.498;2024-01-15T08:04:57;20640.31;;;-147.39;93.49
3524;BME280;1776;53.330;11.498;2024-01-15T08:07:22;20595.63;;;-147.39;93.37
3524;BME280;1776;53.330;11.498;2024-01-15T08:09:47;20624.06;;;-147.39;93.03
3524;BME280;1776;53.330;11.498;2024-01-15T08:12:14;20607.81;;;-147.39;93.13
3524;BME280;1776;53.330;11.498;2024-01-15T08:14:39;20636.25;;;-147.39;93.37
3524;BME280;1776;53.330;11.498;2024-01-15T08:17:04;20855.66;;;-147.39;93.08
3524;BME280;1776;53.330;11.498;2024-01-15T08:19:30;20685.00;;;-147.39;93.02
3524;BME280;1776;53.330;11.498;2024-01-15T08:21:56;20640.31;;;-147.39;92.92
3524;BME280;1776;53.330;11.498;2024-01-15T08:24:21;20680.94;;;-147.39;92.91
3524;BME280;1776;53.330;11.498;2024-01-15T08:26:47;20804.88;;;-147.39;92.92
3524;BME280;1776;53.330;11.498;2024-01-15T08:29:12;20676.88;;;-147.39;92.70
3524;BME280;1776;53.330;11.498;2024-01-15T08:31:37;20707.34;;;-147.39;92.47
3524;BME280;1776;53.330;11.498;2024-01-15T08:34:02;20691.09;;;-147.39;92.83
3524;BME280;1776;53.330;11.498;2024-01-15T08:36:28;20701.25;;;-147.39;92.47
3524;BME280;1776;53.330;11.498;2024-01-15T08:38:56;20725.63;;;-147.39;92.25
3524;BME280;1776;53.330;11.498;2024-01-15T08:41:21;20711.41;;;-147.39;92.53
3524;BME280;1776;53.330;11.498;2024-01-15T08:43:46;20786.59;;;-147.39;92.54
3524;BME280;1776;53.330;11.498;2024-01-15T08:46:12;20723.59;;;-147.39;92.37
3524;BME280;1776;53.330;11.498;2024-01-15T08:48:37;20705.31;;;-147.39;92.39
3524;BME280;1776;53.330;11.498;2024-01-15T08:51:02;20719.53;;;-147.39;92.35
3524;BME280;1776;53.330;11.498;2024-01-15T08:53:28;20916.59;;;-147.39;92.08
3524;BME280;1776;53.330;11.498;2024-01-15T08:55:53;20796.75;;;-147.39;91.83
3524;BME280;1776;53.330;11.498;2024-01-15T08:58:19;20723.59;;;-147.39;91.62
3524;BME280;1776;53.330;11.498;2024-01-15T09:00:44;20800.81;;;-147.39;91.65
3524;BME280;1776;53.330;11.498;2024-01-15T09:03:10;20778.47;;;-147.39;91.34
3524;BME280;1776;53.330;11.498;2024-01-15T09:05:35;20869.88;;;-147.39;90.62
3524;BME280;1776;53.330;11.498;2024-01-15T09:08:00;20926.75;;;-147.39;89.47
3524;BME280;1776;53.330;11.498;2024-01-15T09:10:26;20882.06;;;-147.39;89.49
3524;BME280;1776;53.330;11.498;2024-01-15T09:12:51;20892.22;;;-147.39;89.41
3524;BME280;1776;53.330;11.498;2024-01-15T09:15:16;20945.06;;;-147.39;89.26
3524;BME280;1776;53.330;11.498;2024-01-15T09:17:42;20945.06;;;-147.39;88.79
3524;BME280;1776;53.330;11.498;2024-01-15T09:20:08;21008.03;;;-147.39;88.54
3524;BME280;1776;53.330;11.498;2024-01-15T09:22:34;20967.41;;;-147.39;88.79
3524;BME280;1776;53.330;11.498;2024-01-15T09:24:59;20977.56;;;-147.39;88.63
3524;BME280;1776;53.330;11.498;2024-01-15T09:27:25;21010.06;;;-147.39;88.53
3524;BME280;1776;53.330;11.498;2024-01-15T09:29:51;21089.28;;;-147.39;87.88
3524;BME280;1776;53.330;11.498;2024-01-15T09:32:17;21123.84;;;-147.39;87.38
3524;BME280;1776;53.330;11.498;2024-01-15T09:34:42;21109.63;;;-147.39;87.26
3524;BME280;1776;53.330;11.498;2024-01-15T09:37:07;21166.50;;;-147.39;87.30
3524;BME280;1776;53.330;11.498;2024-01-15T09:39:32;21119.78;;;-147.39;87.69
3524;BME280;1776;53.330;11.498;2024-01-15T09:41:58;21119.78;;;-147.39;87.40
3524;BME280;1776;53.330;11.498;2024-01-15T09:44:25;21294.50;;;-147.39;87.67
3524;BME280;1776;53.330;11.498;2024-01-15T09:46:52;21241.69;;;-147.39;87.65
3524;BME280;1776;53.330;11.498;2024-01-15T09:49:17;21131.97;;;-147.39;87.53
3524;BME280;1776;53.330;11.498;2024-01-15T09:51:44;21142.13;;;-147.39;87.55
3524;BME280;1776;53.330;11.498;2024-01-15T09:54:10;21148.22;;;-147.39;87.53
3524;BME280;1776;53.330;11.498;2024-01-15T09:56:35;21213.22;;;-147.39;87.87
3524;BME280;1776;53.330;11.498;2024-01-15T09:59:01;21158.38;;;-147.39;87.98
3524;BME280;1776;53.330;11.498;2024-01-15T10:01:31;21172.59;;;-147.39;87.78
3524;BME280;1776;53.330;11.498;2024-01-15T10:03:57;21221.34;;;-147.39;88.15
3524;BME280;1776;53.330;11.498;2024-01-15T10:06:24;21154.31;;;-147.39;87.91
3524;BME280;1776;53.330;11.498;2024-01-15T10:08:53;21211.19;;;-147.39;87.94
3524;BME280;1776;53.330;11.498;2024-01-15T10:11:18;21160.41;;;-147.39;87.83
3524;BME280;1776;53.330;11.498;2024-01-15T10:13:44;21144.16;;;-147.39;87.99
3524;BME280;1776;53.330;11.498;2024-01-15T10:16:10;21154.31;;;-147.39;88.29
3524;BME280;1776;53.330;11.498;2024-01-15T10:18:36;20943.03;;;-147.39;88.50
3524;BME280;1776;53.330;11.498;2024-01-15T10:21:02;21115.72;;;-147.39;88.86
3524;BME280;1776;53.330;11.498;2024-01-15T10:23:28;21182.75;;;-147.39;88.29
3524;BME280;1776;53.330;11.498;2024-01-15T10:25:53;21150.25;;;-147.39;88.08
3524;BME280;1776;53.330;11.498;2024-01-15T10:28:19;21138.06;;;-147.39;87.74
3524;BME280;1776;53.330;11.498;2024-01-15T10:30:44;21184.78;;;-147.39;87.34
3524;BME280;1776;53.330;11.498;2024-01-15T10:33:09;21186.81;;;-147.39;87.20
3524;BME280;1776;53.330;11.498;2024-01-15T10:35:36;21249.81;;;-147.39;87.45
3524;BME280;1776;53.330;11.498;2024-01-15T10:38:02;21201.03;;;-147.39;87.65
3524;BME280;1776;53.330;11.498;2024-01-15T10:40:28;20833.31;;;-147.39;87.35
3524;BME280;1776;53.330;11.498;2024-01-15T10:42:54;21192.91;;;-147.39;87.22
3524;BME280;1776;53.330;11.498;2024-01-15T10:45:20;21272.16;;;-147.39;87.66
3524;BME280;1776;53.330;11.498;2024-01-15T10:47:45;21227.47;;;-147.39;87.71
3524;BME280;1776;53.330;11.498;2024-01-15T10:50:11;21203.06;;;-147.39;88.18
3524;BME280;1776;53.330;11.498;2024-01-15T10:52:38;21136.03;;;-147.39;88.75
3524;BME280;1776;53.330;11.498;2024-01-15T10:55:04;21103.53;;;-147.39;89.36
3524;BME280;1776;53.330;11.498;2024-01-15T10:57:30;21119.78;;;-147.39;89.92
3524;BME280;1776;53.330;11.498;2024-01-15T10:59:55;21081.16;;;-147.39;90.28
3524;BME280;1776;53.330;11.498;2024-01-15T11:02:21;21028.34;;;-147.39;90.82
3524;BME280;1776;53.330;11.498;2024-01-15T11:04:46;21026.31;;;-147.39;90.92
3524;BME280;1776;53.330;11.498;2024-01-15T11:07:13;21020.22;;;-147.39;91.51
3524;BME280;1776;53.330;11.498;2024-01-15T11:09:38;21006.00;;;-147.39;91.18
3524;BME280;1776;53.330;11.498;2024-01-15T11:12:12;21032.41;;;-147.39;91.65
3524;BME280;1776;53.330;11.498;2024-01-15T11:14:47;20995.84;;;-147.39;91.90
3524;BME280;1776;53.330;11.498;2024-01-15T11:17:13;20973.50;;;-147.39;92.15
3524;BME280;1776;53.330;11.498;2024-01-15T11:19:48;20938.97;;;-147.39;92.47
3524;BME280;1776;53.330;11.498;2024-01-15T11:25:14;20965.38;;;-147.39;92.38
3524;BME280;1776;53.330;11.498;2024-01-15T11:27:41;20945.06;;;-147.39;91.93
3524;BME280;1776;53.330;11.498;2024-01-15T11:30:11;20961.31;;;-147.39;92.41
3524;BME280;1776;53.330;11.498;2024-01-15T11:32:37;21020.22;;;-147.39;92.21
3524;BME280;1776;53.330;11.498;2024-01-15T11:35:06;20938.97;;;-147.39;92.35
3524;BME280;1776;53.330;11.498;2024-01-15T11:40:19;20953.19;;;-147.39;92.54
3524;BME280;1776;53.330;11.498;2024-01-15T11:42:45;20938.97;;;-147.39;92.22
3524;BME280;1776;53.330;11.498;2024-01-15T11:45:11;20922.69;;;-147.39;92.56
3524;BME280;1776;53.330;11.498;2024-01-15T11:48:01;20922.69;;;-147.39;92.75
3524;BME280;1776;53.330;11.498;2024-01-15T11:50:33;20896.28;;;-147.39;92.47
3524;BME280;1776;53.330;11.498;2024-01-15T11:53:03;20922.69;;;-147.39;92.88
3524;BME280;1776;53.330;11.498;2024-01-15T11:55:36;20945.06;;;-147.39;92.88
3524;BME280;1776;53.330;11.498;2024-01-15T11:58:08;20878.00;;;-147.39;92.73
3524;BME280;1776;53.330;11.498;2024-01-15T12:00:33;20813.00;;;-147.39;93.15
3524;BME280;1776;53.330;11.498;2024-01-15T12:02:59;20841.44;;;-147.39;92.91
3524;BME280;1776;53.330;11.498;2024-01-15T12:05:24;20875.97;;;-147.39;93.73
3524;BME280;1776;53.330;11.498;2024-01-15T12:07:50;20945.06;;;-147.39;92.84
3524;BME280;1776;53.330;11.498;2024-01-15T12:10:20;20873.94;;;-147.39;93.15
3524;BME280;1776;53.330;11.498;2024-01-15T12:13:11;20884.09;;;-147.39;93.13
3524;BME280;1776;53.330;11.498;2024-01-15T12:15:38;20902.38;;;-147.39;93.41
3524;BME280;1776;53.330;11.498;2024-01-15T12:18:07;20878.00;;;-147.39;93.66
3524;BME280;1776;53.330;11.498;2024-01-15T12:20:33;20855.66;;;-147.39;93.87
3524;BME280;1776;53.330;11.498;2024-01-15T12:22:59;20851.59;;;-147.39;94.06
3524;BME280;1776;53.330;11.498;2024-01-15T12:25:25;20837.38;;;-147.39;93.75
3524;BME280;1776;53.330;11.498;2024-01-15T12:27:52;20926.75;;;-147.39;93.54
3524;BME280;1776;53.330;11.498;2024-01-15T12:30:18;20855.66;;;-147.39;93.24
3524;BME280;1776;53.330;11.498;2024-01-15T12:32:43;20890.19;;;-147.39;93.40
3524;BME280;1776;53.330;11.498;2024-01-15T12:35:12;20916.59;;;-147.39;92.94
3524;BME280;1776;53.330;11.498;2024-01-15T12:37:39;20945.06;;;-147.39;93.26
3524;BME280;1776;53.330;11.498;2024-01-15T12:40:05;20882.06;;;-147.39;92.82
3524;BME280;1776;53.330;11.498;2024-01-15T12:42:37;20914.56;;;-147.39;93.01
3524;BME280;1776;53.330;11.498;2024-01-15T12:45:09;20900.34;;;-147.39;92.80
3524;BME280;1776;53.330;11.498;2024-01-15T12:47:34;20898.31;;;-147.39;92.68
3524;BME280;1776;53.330;11.498;2024-01-15T12:50:00;20896.28;;;-147.39;92.62
3524;BME280;1776;53.330;11.498;2024-01-15T12:52:27;20912.53;;;-147.39;92.99